createdAt,value
2019-02-23T00:00:37.659Z,59.00
2019-02-23T00:03:32.864Z,58.75
2019-02-23T00:06:08.031Z,59.25
2019-02-23T00:08:37.104Z,61.00
2019-02-23T00:11:10.459Z,55.75
2019-02-23T00:13:39.491Z,66.25
2019-02-23T00:16:08.867Z,58.75
2019-02-23T00:18:38.146Z,59.00
2019-02-23T00:21:07.309Z,63.25
2019-02-23T00:23:36.365Z,58.75
2019-02-23T00:26:05.651Z,54.75
2019-02-23T00:28:41.004Z,51.00
2019-02-23T00:31:06.416Z,51.25
2019-02-23T00:33:37.387Z,51.75
2019-02-23T00:36:10.188Z,50.25
2019-02-23T00:38:41.140Z,54.00
2019-02-23T00:41:10.343Z,55.00
2019-02-23T00:43:39.554Z,48.50
2019-02-23T00:46:08.690Z,59.50
2019-02-23T00:48:39.978Z,49.75
2019-02-23T00:51:09.266Z,56.25
2019-02-23T00:53:39.509Z,49.25
2019-02-23T00:56:08.619Z,56.75
2019-02-23T00:58:37.766Z,49.25
2019-02-23T01:01:06.984Z,52.25
2019-02-23T01:03:36.096Z,50.75
2019-02-23T01:06:05.271Z,46.25
2019-02-23T01:08:54.709Z,49.75
2019-02-23T01:11:23.829Z,52.50
2019-02-23T01:13:54.216Z,50.75
2019-02-23T01:16:23.357Z,59.00
2019-02-23T01:18:53.986Z,49.50
2019-02-23T01:21:25.231Z,44.75
2019-02-23T01:23:54.542Z,46.50
2019-02-23T01:26:23.773Z,55.00
2019-02-23T01:28:53.375Z,53.75
2019-02-23T01:31:23.884Z,53.00
2019-02-23T01:33:53.223Z,47.00
2019-02-23T01:36:22.578Z,50.50
2019-02-23T01:38:52.281Z,52.25
2019-02-23T01:41:21.846Z,44.75
2019-02-23T01:43:52.883Z,49.25
2019-02-23T01:46:22.229Z,44.75
2019-02-23T01:48:51.462Z,50.75
2019-02-23T01:51:20.621Z,43.25
2019-02-23T01:53:51.110Z,48.25
2019-02-23T01:56:22.743Z,52.75
2019-02-23T01:58:51.908Z,51.50
2019-02-23T02:01:21.054Z,54.75
2019-02-23T02:03:54.401Z,50.50
2019-02-23T02:06:23.710Z,54.00
2019-02-23T02:08:52.999Z,49.50
2019-02-23T02:11:23.211Z,53.00
2019-02-23T02:13:52.550Z,47.50
2019-02-23T02:16:25.224Z,48.00
2019-02-23T02:18:54.251Z,47.50
2019-02-23T02:21:25.460Z,45.50
2019-02-23T02:23:54.525Z,44.00
2019-02-23T02:26:23.769Z,45.00
2019-02-23T02:28:53.918Z,52.50
2019-02-23T02:31:23.132Z,48.50
2019-02-23T02:34:17.648Z,50.00
2019-02-23T02:36:47.068Z,41.00
2019-02-23T02:39:16.934Z,50.00
2019-02-23T02:41:46.120Z,44.50
2019-02-23T02:44:16.723Z,50.00
2019-02-23T02:46:47.435Z,49.00
2019-02-23T02:49:16.612Z,47.00
2019-02-23T02:51:48.195Z,54.00
2019-02-23T02:54:17.567Z,48.00
2019-02-23T02:56:55.478Z,45.50
2019-02-23T02:59:26.419Z,45.00
2019-02-23T03:02:40.223Z,51.50
2019-02-23T03:05:11.229Z,48.00
2019-02-23T03:07:45.208Z,46.50
2019-02-23T03:10:14.496Z,48.50
2019-02-23T03:12:44.263Z,45.00
2019-02-23T03:15:15.046Z,50.00
2019-02-23T03:17:45.686Z,46.50
2019-02-23T03:20:14.885Z,49.50
2019-02-23T03:22:44.034Z,39.50
2019-02-23T03:25:14.714Z,47.00
2019-02-23T03:27:44.194Z,51.50
2019-02-23T03:30:13.442Z,49.00
2019-02-23T03:32:42.816Z,48.50
2019-02-23T03:35:15.071Z,47.50
2019-02-23T03:37:49.154Z,41.50
2019-02-23T03:40:26.807Z,46.00
2019-02-23T03:42:57.517Z,47.00
2019-02-23T03:45:27.177Z,49.50
2019-02-23T03:48:08.405Z,48.50
2019-02-23T03:50:48.682Z,56.50
2019-02-23T03:53:08.700Z,48.00
2019-02-23T03:55:38.856Z,52.00
2019-02-23T03:58:13.639Z,42.50
2019-02-23T04:00:42.783Z,51.00
2019-02-23T04:03:14.237Z,50.50
2019-02-23T04:05:43.450Z,46.50
2019-02-23T04:08:12.684Z,54.00
2019-02-23T04:10:41.782Z,50.50
2019-02-23T04:13:10.941Z,51.00
2019-02-23T04:15:40.075Z,46.50
2019-02-23T04:18:09.139Z,44.50
2019-02-23T04:20:40.345Z,45.50
2019-02-23T04:23:09.543Z,53.50
2019-02-23T04:25:38.742Z,47.50
2019-02-23T04:28:08.380Z,47.50
2019-02-23T04:30:37.524Z,55.00
2019-02-23T04:33:06.702Z,42.50
2019-02-23T04:35:35.979Z,52.50
2019-02-23T04:38:05.284Z,50.50
2019-02-23T04:40:34.459Z,50.00
2019-02-23T04:43:03.912Z,47.00
2019-02-23T04:45:33.370Z,56.50
2019-02-23T04:48:02.587Z,48.00
2019-02-23T04:50:31.893Z,52.00
2019-02-23T04:53:01.241Z,53.00
2019-02-23T04:55:30.335Z,45.50
2019-02-23T04:57:59.687Z,48.00
2019-02-23T05:00:28.972Z,51.00
2019-02-23T05:02:58.136Z,45.00
2019-02-23T05:05:29.505Z,50.00
2019-02-23T05:07:58.592Z,45.00
2019-02-23T05:10:32.091Z,48.00
2019-02-23T05:13:04.402Z,38.50
2019-02-23T05:15:36.863Z,53.00
2019-02-23T05:18:06.278Z,39.50
2019-02-23T05:20:40.916Z,47.50
2019-02-23T05:23:16.008Z,53.50
2019-02-23T05:25:45.440Z,50.00
2019-02-23T05:28:18.092Z,51.50
2019-02-23T05:30:55.276Z,50.50
2019-02-23T05:33:49.016Z,53.50
2019-02-23T05:36:19.565Z,44.50
2019-02-23T05:39:18.334Z,45.50
2019-02-23T05:42:47.301Z,42.50
2019-02-23T05:45:22.024Z,50.00
2019-02-23T05:48:00.380Z,48.50
2019-02-23T05:50:31.524Z,48.00
2019-02-23T05:53:00.778Z,49.00
2019-02-23T05:55:30.078Z,56.50
2019-02-23T05:58:00.181Z,43.50
2019-02-23T06:00:47.427Z,46.50
2019-02-23T06:03:17.668Z,42.00
2019-02-23T06:05:46.783Z,50.00
2019-02-23T06:08:15.938Z,57.00
2019-02-23T06:10:45.105Z,49.00
2019-02-23T06:13:15.193Z,53.00
2019-02-23T06:15:52.479Z,49.00
2019-02-23T06:18:23.789Z,45.50
2019-02-23T06:20:53.189Z,46.00
2019-02-23T06:23:24.649Z,47.50
2019-02-23T06:25:53.988Z,45.00
2019-02-23T06:28:23.268Z,44.00
2019-02-23T06:30:52.704Z,46.50
2019-02-23T06:33:21.899Z,55.50
2019-02-23T06:35:51.132Z,40.50
2019-02-23T06:38:22.226Z,57.00
2019-02-23T06:40:51.703Z,46.50
2019-02-23T06:43:20.981Z,43.50
2019-02-23T06:45:55.202Z,45.00
2019-02-23T06:48:27.592Z,49.50
2019-02-23T06:51:00.185Z,45.00
2019-02-23T06:54:01.500Z,47.00
2019-02-23T06:56:48.627Z,56.50
2019-02-23T07:03:55.358Z,45.00
2019-02-23T07:06:39.593Z,42.50
2019-02-23T07:18:59.209Z,50.50
2019-02-23T07:21:31.958Z,47.50
2019-02-23T07:24:02.767Z,49.00
2019-02-23T07:26:36.759Z,59.50
2019-02-23T07:29:51.350Z,49.50
2019-02-23T07:32:10.304Z,49.00
2019-02-23T07:34:42.362Z,46.00
2019-02-23T07:37:11.831Z,44.50
2019-02-23T07:40:27.154Z,49.00
2019-02-23T07:43:11.317Z,51.00
2019-02-23T07:45:52.321Z,50.00
2019-02-23T07:48:52.328Z,49.00
2019-02-23T07:51:43.320Z,45.50
2019-02-23T07:57:38.392Z,47.50
2019-02-23T08:00:42.719Z,49.50
2019-02-23T08:03:28.370Z,54.50
2019-02-23T08:09:37.042Z,46.00
2019-02-23T08:12:08.376Z,41.50
2019-02-23T08:14:52.924Z,48.50
2019-02-23T08:17:11.692Z,45.00
2019-02-23T08:19:43.653Z,46.00
2019-02-23T08:22:20.606Z,49.50
2019-02-23T08:25:26.671Z,54.50
2019-02-23T08:27:53.132Z,47.50
2019-02-23T08:30:22.389Z,50.00
2019-02-23T08:32:51.886Z,48.00
2019-02-23T08:35:22.385Z,51.50
2019-02-23T08:37:51.604Z,50.50
2019-02-23T08:41:03.182Z,47.00
2019-02-23T08:43:13.034Z,52.50
2019-02-23T08:45:57.683Z,53.00
2019-02-23T08:48:41.561Z,43.00
2019-02-23T08:54:01.802Z,45.50
2019-02-23T08:56:31.156Z,55.50
2019-02-23T08:59:04.155Z,53.00
2019-02-23T09:01:34.132Z,47.50
2019-02-23T09:04:14.840Z,50.00
2019-02-23T09:06:53.247Z,47.50
2019-02-23T09:09:46.170Z,44.00
2019-02-23T09:12:05.712Z,46.50
2019-02-23T09:14:36.061Z,56.50
2019-02-23T09:17:07.514Z,44.50
2019-02-23T09:19:41.211Z,52.00
2019-02-23T09:22:13.568Z,54.00
2019-02-23T09:24:46.654Z,46.50
2019-02-23T09:27:15.781Z,45.50
2019-02-23T09:30:21.927Z,50.00
2019-02-23T09:33:06.754Z,56.50
2019-02-23T09:35:39.470Z,48.00
2019-02-23T09:38:11.687Z,52.50
2019-02-23T09:40:45.056Z,51.00
2019-02-23T09:43:24.972Z,42.50
2019-02-23T09:45:55.135Z,45.25
2019-02-23T09:48:24.298Z,47.25
2019-02-23T09:50:53.388Z,45.50
2019-02-23T09:53:31.059Z,43.50
2019-02-23T09:56:00.199Z,47.50
2019-02-23T09:58:31.198Z,49.00
2019-02-23T10:01:00.078Z,45.50
2019-02-23T10:03:30.409Z,46.00
2019-02-23T10:05:59.538Z,37.75
2019-02-23T10:08:28.645Z,44.00
2019-02-23T10:10:58.085Z,42.25
2019-02-23T10:13:27.583Z,40.75
2019-02-23T10:15:56.664Z,45.25
2019-02-23T10:18:25.778Z,44.25
2019-02-23T10:20:54.982Z,35.50
2019-02-23T10:23:24.064Z,42.00
2019-02-23T10:25:54.198Z,39.50
2019-02-23T10:28:23.239Z,38.75
2019-02-23T10:30:52.268Z,43.00
2019-02-23T10:33:21.374Z,41.50
2019-02-23T10:35:50.482Z,40.50
2019-02-23T10:38:19.551Z,40.50
2019-02-23T10:40:48.563Z,39.75
2019-02-23T10:43:17.722Z,36.75
2019-02-23T10:45:54.187Z,40.00
2019-02-23T10:48:23.334Z,40.00
2019-02-23T10:50:52.383Z,34.50
2019-02-23T10:53:21.426Z,41.25
2019-02-23T10:55:50.463Z,40.50
2019-02-23T10:58:19.533Z,40.75
2019-02-23T11:00:48.639Z,41.75
2019-02-23T11:03:17.657Z,42.25
2019-02-23T11:05:46.818Z,38.50
2019-02-23T11:08:15.841Z,47.50
2019-02-23T11:10:44.974Z,45.75
2019-02-23T11:13:15.545Z,39.25
2019-02-23T11:15:45.028Z,41.75
2019-02-23T11:18:14.123Z,44.00
2019-02-23T11:20:43.487Z,45.50
2019-02-23T11:23:16.205Z,40.25
2019-02-23T11:25:45.356Z,44.50
2019-02-23T11:28:14.551Z,46.75
2019-02-23T11:30:43.674Z,45.00
2019-02-23T11:33:12.725Z,43.75
2019-02-23T11:35:41.812Z,42.50
2019-02-23T11:38:10.794Z,43.00
2019-02-23T11:40:42.747Z,49.00
2019-02-23T11:43:14.068Z,46.75
2019-02-23T11:45:43.200Z,43.75
2019-02-23T11:48:12.348Z,43.50
2019-02-23T11:50:41.446Z,43.50
2019-02-23T11:53:10.507Z,44.50
2019-02-23T11:55:40.996Z,46.00
2019-02-23T11:58:10.097Z,41.00
2019-02-23T12:00:39.250Z,46.75
2019-02-23T12:03:09.501Z,47.00
2019-02-23T12:05:38.512Z,45.75
2019-02-23T12:08:07.638Z,41.50
2019-02-23T12:10:36.720Z,43.75
2019-02-23T12:13:05.826Z,37.50
2019-02-23T12:15:35.068Z,46.75
2019-02-23T12:18:04.098Z,41.25
2019-02-23T12:20:33.094Z,38.50
2019-02-23T12:23:02.103Z,38.50
2019-02-23T12:25:32.390Z,35.75
2019-02-23T12:28:02.463Z,35.00
2019-02-23T12:30:32.854Z,36.00
2019-02-23T12:33:04.646Z,38.50
2019-02-23T12:35:33.884Z,30.75
2019-02-23T12:38:05.183Z,36.00
2019-02-23T12:40:34.307Z,41.25
2019-02-23T12:43:03.393Z,34.00
2019-02-23T12:45:33.847Z,39.00
2019-02-23T12:48:06.498Z,28.50
2019-02-23T12:50:35.657Z,38.00
2019-02-23T12:53:05.811Z,30.50
2019-02-23T12:55:35.016Z,31.75
2019-02-23T12:58:07.143Z,29.75
2019-02-23T13:00:36.362Z,34.00
2019-02-23T13:03:05.611Z,30.50
2019-02-23T13:05:34.675Z,34.00
2019-02-23T13:08:04.051Z,33.00
2019-02-23T13:10:33.073Z,28.75
2019-02-23T13:13:28.549Z,34.00
2019-02-23T13:16:01.628Z,32.00
2019-02-23T13:19:04.765Z,33.50
2019-02-23T13:22:19.725Z,26.50
2019-02-23T13:25:07.831Z,34.75
2019-02-23T13:28:33.100Z,31.00
2019-02-23T13:31:38.495Z,26.50
2019-02-23T13:34:51.777Z,28.25
2019-02-23T13:37:36.515Z,28.50
2019-02-23T13:40:38.777Z,24.75
2019-02-23T13:43:25.832Z,30.25
2019-02-23T13:46:25.492Z,30.25
2019-02-23T13:49:27.640Z,31.75
2019-02-23T13:52:21.798Z,33.50
2019-02-23T13:55:37.280Z,33.75
2019-02-23T13:58:41.505Z,26.00
2019-02-23T14:01:55.952Z,26.00
2019-02-23T14:04:59.223Z,30.75
2019-02-23T14:08:08.306Z,29.25
2019-02-23T14:11:11.963Z,29.50
2019-02-23T14:14:12.546Z,27.00
2019-02-23T14:16:52.659Z,31.25
2019-02-23T14:19:49.483Z,27.50
2019-02-23T14:22:54.858Z,24.50
2019-02-23T14:26:00.046Z,29.75
2019-02-23T14:29:28.641Z,28.25
2019-02-23T14:32:23.635Z,30.00
2019-02-23T14:35:24.013Z,28.50
2019-02-23T14:38:33.716Z,30.75
2019-02-23T14:41:31.759Z,30.50
2019-02-23T14:44:22.702Z,28.00
2019-02-23T14:47:23.422Z,28.50
2019-02-23T14:50:26.404Z,32.50
2019-02-23T14:53:44.976Z,32.75
2019-02-23T14:56:47.024Z,31.00
2019-02-23T14:59:57.424Z,27.50
2019-02-23T15:02:46.307Z,28.75
2019-02-23T15:05:46.379Z,33.25
2019-02-23T15:08:39.282Z,27.25
2019-02-23T15:11:47.975Z,31.50
2019-02-23T15:14:33.021Z,26.75
2019-02-23T15:17:24.187Z,28.75
2019-02-23T15:20:21.767Z,27.75
2019-02-23T15:23:21.349Z,30.00
2019-02-23T15:26:20.627Z,25.75
2019-02-23T15:29:10.894Z,26.75
2019-02-23T15:32:15.224Z,24.50
2019-02-23T15:35:15.667Z,25.00
2019-02-23T15:38:14.020Z,27.25
2019-02-23T15:41:22.264Z,28.25
2019-02-23T15:44:06.255Z,25.00
2019-02-23T15:47:03.390Z,26.00
2019-02-23T15:49:35.480Z,23.50
2019-02-23T15:52:09.036Z,22.25
2019-02-23T15:54:41.052Z,20.75
2019-02-23T15:57:17.662Z,22.00
2019-02-23T15:59:51.111Z,25.75
2019-02-23T16:02:21.584Z,26.75
2019-02-23T16:04:53.038Z,20.75
2019-02-23T16:07:25.027Z,21.50
2019-02-23T16:09:54.108Z,22.25
2019-02-23T16:12:25.547Z,17.50
2019-02-23T16:14:56.723Z,19.50
2019-02-23T16:17:25.828Z,19.75
2019-02-23T16:19:54.950Z,21.25
2019-02-23T16:22:26.396Z,21.50
2019-02-23T16:24:55.416Z,14.50
2019-02-23T16:27:24.469Z,21.00
2019-02-23T16:29:53.511Z,20.75
2019-02-23T16:32:24.854Z,19.00
2019-02-23T16:34:53.834Z,20.00
2019-02-23T16:37:22.880Z,15.25
2019-02-23T16:39:51.920Z,21.00
2019-02-23T16:42:20.929Z,22.50
2019-02-23T16:44:49.952Z,23.00
2019-02-23T16:47:19.094Z,23.50
2019-02-23T16:49:48.101Z,22.75
2019-02-23T16:52:17.148Z,23.75
2019-02-23T16:54:48.982Z,24.50
2019-02-23T16:57:18.051Z,32.25
2019-02-23T16:59:47.127Z,28.50
2019-02-23T17:02:16.230Z,30.50
2019-02-23T17:04:53.450Z,24.00
2019-02-23T17:07:16.152Z,28.00
2019-02-23T17:09:45.218Z,25.00
2019-02-23T17:12:16.419Z,30.25
2019-02-23T17:14:45.416Z,28.25
2019-02-23T17:17:14.575Z,29.75
2019-02-23T17:19:43.602Z,31.75
2019-02-23T17:22:13.072Z,38.00
2019-02-23T17:24:42.134Z,25.50
2019-02-23T17:27:11.165Z,28.25
2019-02-23T17:29:41.209Z,25.50
2019-02-23T17:32:10.351Z,25.00
2019-02-23T17:34:39.351Z,31.50
2019-02-23T17:37:08.371Z,27.25
2019-02-23T17:39:37.407Z,28.75
2019-02-23T17:42:06.422Z,25.75
2019-02-23T17:44:37.727Z,27.75
2019-02-23T17:47:06.839Z,26.00
2019-02-23T17:49:35.950Z,25.00
2019-02-23T17:52:04.960Z,26.00
2019-02-23T17:54:37.948Z,27.00
2019-02-23T17:57:06.958Z,27.75
2019-02-23T17:59:35.984Z,30.75
2019-02-23T18:02:05.864Z,27.00
2019-02-23T18:04:34.965Z,24.75
2019-02-23T18:07:04.063Z,26.50
2019-02-23T18:09:33.141Z,24.25
2019-02-23T18:12:02.275Z,27.00
2019-02-23T18:14:33.063Z,24.50
2019-02-23T18:17:03.649Z,28.25
2019-02-23T18:19:32.677Z,29.00
2019-02-23T18:22:01.750Z,28.75
2019-02-23T18:24:30.827Z,31.00
2019-02-23T18:26:59.863Z,31.00
2019-02-23T18:29:28.973Z,37.75
2019-02-23T18:31:59.117Z,37.00
2019-02-23T18:34:28.162Z,31.50
2019-02-23T18:36:57.203Z,33.50
2019-02-23T18:39:26.282Z,31.00
2019-02-23T18:41:55.305Z,38.25
2019-02-23T18:44:24.326Z,30.25
2019-02-23T18:46:53.442Z,37.25
2019-02-23T18:49:22.457Z,38.75
2019-02-23T18:51:51.484Z,42.50
2019-02-23T18:54:20.544Z,35.50
2019-02-23T18:59:18.021Z,32.50
2019-02-23T19:01:47.037Z,31.75
2019-02-23T19:04:16.073Z,29.25
2019-02-23T19:06:45.177Z,29.00
2019-02-23T19:09:14.274Z,27.50
2019-02-23T19:11:43.315Z,35.00
2019-02-23T19:14:12.415Z,33.50
2019-02-23T19:16:41.425Z,34.50
2019-02-23T19:19:10.585Z,32.50
2019-02-23T19:21:39.621Z,35.00
2019-02-23T19:24:08.819Z,28.25
2019-02-23T19:26:39.921Z,34.00
2019-02-23T19:29:08.931Z,34.50
2019-02-23T19:31:38.269Z,43.00
2019-02-23T19:34:07.335Z,34.25
2019-02-23T19:36:36.596Z,38.00
2019-02-23T19:39:06.146Z,39.25
2019-02-23T19:41:36.264Z,39.50
2019-02-23T19:44:05.542Z,47.00
2019-02-23T19:46:54.968Z,40.00
2019-02-23T19:49:24.002Z,48.25
2019-02-23T19:51:53.168Z,45.25
2019-02-23T19:54:22.203Z,45.25
2019-02-23T19:56:52.631Z,44.50
2019-02-23T19:59:21.638Z,45.50
2019-02-23T20:01:50.704Z,54.25
2019-02-23T20:04:19.811Z,52.25
2019-02-23T20:06:48.976Z,55.00
2019-02-23T20:09:18.006Z,45.00
2019-02-23T20:11:48.200Z,52.75
2019-02-23T20:14:17.253Z,48.00
2019-02-23T20:16:47.363Z,46.75
2019-02-23T20:19:16.442Z,39.50
2019-02-23T20:21:45.639Z,48.50
2019-02-23T20:24:17.036Z,44.00
2019-02-23T20:26:46.167Z,38.00
2019-02-23T20:29:15.196Z,44.00
2019-02-23T20:31:45.445Z,42.75
2019-02-23T20:34:14.601Z,41.25
2019-02-23T20:36:43.802Z,36.75
2019-02-23T20:39:12.869Z,41.50
2019-02-23T20:41:42.474Z,32.75
2019-02-23T20:44:11.753Z,31.50
2019-02-23T20:46:41.274Z,44.75
2019-02-23T20:49:10.425Z,48.00
2019-02-23T20:51:39.707Z,37.25
2019-02-23T20:54:10.202Z,38.00
2019-02-23T20:56:39.329Z,41.25
2019-02-23T20:59:08.393Z,37.00
2019-02-23T21:01:39.729Z,38.75
2019-02-23T21:04:08.808Z,35.50
2019-02-23T21:06:37.881Z,38.00
2019-02-23T21:09:07.829Z,38.75
2019-02-23T21:11:36.859Z,34.50
2019-02-23T21:14:05.957Z,36.75
2019-02-23T21:16:36.283Z,37.25
2019-02-23T21:19:05.633Z,39.75
2019-02-23T21:21:34.750Z,40.00
2019-02-23T21:24:04.000Z,38.50
2019-02-23T21:26:34.935Z,36.50
2019-02-23T21:29:04.161Z,29.75
2019-02-23T21:31:33.175Z,36.75
2019-02-23T21:34:02.345Z,36.75
2019-02-23T21:36:33.553Z,32.00
2019-02-23T21:39:02.700Z,38.75
2019-02-23T21:41:31.793Z,31.00
2019-02-23T21:44:00.837Z,37.75
2019-02-23T21:46:31.320Z,33.25
2019-02-23T21:49:00.408Z,36.25
2019-02-23T21:51:29.530Z,38.75
2019-02-23T21:53:58.609Z,37.25
2019-02-23T21:56:27.803Z,41.00
2019-02-23T21:58:56.911Z,39.75
2019-02-23T22:01:26.011Z,37.00
2019-02-23T22:03:55.047Z,29.00
2019-02-23T22:06:27.154Z,36.25
2019-02-23T22:08:56.177Z,33.75
2019-02-23T22:11:25.198Z,33.75
2019-02-23T22:13:54.262Z,40.00
2019-02-23T22:16:23.294Z,28.75
2019-02-23T22:18:52.362Z,35.50
2019-02-23T22:21:21.427Z,38.00
2019-02-23T22:23:52.190Z,37.50
2019-02-23T22:26:22.554Z,31.50
2019-02-23T22:28:51.645Z,36.00
2019-02-23T22:31:20.730Z,37.00
2019-02-23T22:33:49.829Z,31.50
2019-02-23T22:36:18.906Z,28.00
2019-02-23T22:38:47.984Z,32.50
2019-02-23T22:41:19.321Z,34.00
2019-02-23T22:43:48.324Z,37.50
2019-02-23T22:46:19.709Z,31.00
2019-02-23T22:48:48.783Z,31.00
2019-02-23T22:51:17.948Z,39.00
2019-02-23T22:53:47.055Z,40.50
2019-02-23T22:56:16.403Z,34.50
2019-02-23T22:58:47.522Z,34.00
2019-02-23T23:01:17.095Z,29.50
2019-02-23T23:03:46.911Z,33.50
2019-02-23T23:06:16.012Z,31.50
2019-02-23T23:08:45.222Z,40.00
2019-02-23T23:11:15.520Z,30.50
2019-02-23T23:13:46.380Z,40.50
2019-02-23T23:16:15.498Z,35.00
2019-02-23T23:18:44.529Z,36.50
2019-02-23T23:21:13.698Z,40.00
2019-02-23T23:23:42.876Z,38.50
2019-02-23T23:26:12.771Z,35.00
2019-02-23T23:28:41.833Z,34.00
2019-02-23T23:31:10.869Z,33.50
2019-02-23T23:33:39.965Z,32.00
2019-02-23T23:36:09.112Z,33.50
2019-02-23T23:38:38.371Z,33.50
2019-02-23T23:41:08.907Z,34.00
2019-02-23T23:43:38.041Z,35.50
2019-02-23T23:46:07.109Z,30.00
2019-02-23T23:48:36.622Z,33.50
2019-02-23T23:51:05.785Z,35.00
2019-02-23T23:53:34.974Z,36.00
2019-02-23T23:56:04.135Z,31.50
2019-02-23T23:58:33.796Z,34.50
